createdAt,value
2022-11-22T00:00:26.074Z,171.90
2022-11-22T00:02:52.699Z,169.27
2022-11-22T00:05:20.119Z,170.45
2022-11-22T00:07:47.066Z,174.90
2022-11-22T00:10:15.339Z,159.75
2022-11-22T00:12:42.463Z,166.90
2022-11-22T00:15:10.078Z,167.68
2022-11-22T00:17:36.695Z,176.32
2022-11-22T00:20:04.788Z,165.25
2022-11-22T00:22:32.277Z,168.48
2022-11-22T00:24:58.890Z,174.10
2022-11-22T00:27:25.795Z,170.43
2022-11-22T00:29:52.391Z,168.32
2022-11-22T00:32:19.088Z,176.18
2022-11-22T00:34:45.953Z,169.02
2022-11-22T00:37:12.713Z,170.85
2022-11-22T00:39:39.341Z,159.57
2022-11-22T00:42:05.983Z,159.55
2022-11-22T00:44:32.646Z,161.90
2022-11-22T00:46:59.290Z,163.25
2022-11-22T00:49:25.885Z,168.48
2022-11-22T00:51:52.868Z,167.98
2022-11-22T00:54:19.560Z,164.27
2022-11-22T00:56:46.235Z,162.68
2022-11-22T00:59:12.869Z,161.77
2022-11-22T01:01:39.565Z,170.38
2022-11-22T01:04:06.371Z,162.60
2022-11-22T01:06:33.047Z,165.48
2022-11-22T01:08:59.724Z,177.75
2022-11-22T01:11:26.338Z,172.48
2022-11-22T01:13:53.014Z,165.38
2022-11-22T01:16:20.081Z,174.88
2022-11-22T01:18:46.723Z,176.10
2022-11-22T01:21:13.412Z,167.48
2022-11-22T01:23:40.029Z,170.57
2022-11-22T01:26:11.596Z,170.65
2022-11-22T01:28:38.197Z,170.77
2022-11-22T01:31:05.035Z,163.45
2022-11-22T01:33:31.726Z,167.93
2022-11-22T01:35:58.639Z,154.98
2022-11-22T01:38:26.236Z,159.77
2022-11-22T01:40:53.598Z,158.52
2022-11-22T01:43:23.665Z,167.82
2022-11-22T01:45:55.290Z,161.90
2022-11-22T01:48:29.072Z,162.30
2022-11-22T01:51:03.228Z,157.38
2022-11-22T01:53:35.015Z,156.23
2022-11-22T01:56:04.021Z,176.43
2022-11-22T01:58:33.358Z,170.85
2022-11-22T02:01:00.774Z,170.43
2022-11-22T02:03:30.188Z,170.68
2022-11-22T02:05:57.398Z,157.95
2022-11-22T02:08:52.815Z,157.45
2022-11-22T02:11:20.504Z,171.77
2022-11-22T02:13:48.500Z,174.13
2022-11-22T02:16:15.121Z,162.68
2022-11-22T02:18:41.803Z,160.15
2022-11-22T02:21:09.247Z,162.55
2022-11-22T02:23:44.841Z,163.32
2022-11-22T02:26:12.564Z,168.23
2022-11-22T02:28:40.679Z,172.50
2022-11-22T02:31:07.608Z,162.55
2022-11-22T02:33:34.675Z,168.05
2022-11-22T02:36:01.835Z,160.48
2022-11-22T02:38:32.720Z,161.18
2022-11-22T02:41:07.326Z,161.18
2022-11-22T02:43:40.339Z,174.57
2022-11-22T02:46:11.954Z,163.45
2022-11-22T02:48:42.911Z,158.75
2022-11-22T02:51:10.356Z,169.77
2022-11-22T02:53:37.053Z,172.80
2022-11-22T02:56:03.710Z,165.95
2022-11-22T02:58:30.290Z,173.80
2022-11-22T03:00:56.946Z,156.75
2022-11-22T03:03:23.632Z,173.30
2022-11-22T03:05:50.222Z,164.38
2022-11-22T03:08:16.793Z,173.90
2022-11-22T03:10:43.421Z,173.55
2022-11-22T03:13:10.100Z,162.93
2022-11-22T03:15:36.772Z,175.35
2022-11-22T03:18:04.207Z,163.27
2022-11-22T03:20:32.319Z,169.48
2022-11-22T03:23:00.895Z,161.73
2022-11-22T03:25:27.508Z,160.70
2022-11-22T03:27:54.793Z,168.68
2022-11-22T03:30:21.467Z,171.85
2022-11-22T03:32:48.147Z,155.45
2022-11-22T03:35:14.926Z,156.85
2022-11-22T03:37:41.637Z,164.25
2022-11-22T03:40:08.863Z,162.20
2022-11-22T03:42:35.520Z,170.80
2022-11-22T03:45:02.135Z,160.15
2022-11-22T03:47:28.992Z,157.65
2022-11-22T03:49:55.577Z,162.18
2022-11-22T03:52:22.258Z,168.55
2022-11-22T03:54:48.914Z,174.85
2022-11-22T03:57:17.463Z,167.27
2022-11-22T03:59:44.130Z,171.38
2022-11-22T04:02:10.844Z,158.60
2022-11-22T04:04:37.557Z,163.55
2022-11-22T04:07:04.209Z,154.93
2022-11-22T04:09:31.247Z,164.95
2022-11-22T04:11:58.216Z,160.68
2022-11-22T04:14:43.462Z,164.65
2022-11-22T04:17:13.788Z,160.98
2022-11-22T04:20:00.341Z,167.25
2022-11-22T04:22:27.012Z,168.70
2022-11-22T04:25:12.245Z,158.70
2022-11-22T04:27:38.878Z,168.55
2022-11-22T04:30:06.084Z,161.50
2022-11-22T04:32:52.959Z,174.77
2022-11-22T04:35:19.886Z,161.63
2022-11-22T04:37:52.794Z,174.80
2022-11-22T04:40:19.389Z,160.93
2022-11-22T04:43:04.745Z,168.05
2022-11-22T04:45:31.325Z,176.65
2022-11-22T04:48:00.883Z,173.63
2022-11-22T04:50:48.089Z,177.02
2022-11-22T04:53:16.506Z,172.38
2022-11-22T04:55:46.114Z,162.63
2022-11-22T04:58:13.244Z,173.05
2022-11-22T05:00:40.326Z,161.27
2022-11-22T05:03:07.701Z,168.27
2022-11-22T05:05:39.655Z,169.40
2022-11-22T05:08:07.471Z,170.50
2022-11-22T05:10:53.169Z,167.75
2022-11-22T05:13:23.305Z,169.52
2022-11-22T05:15:51.449Z,179.68
2022-11-22T05:18:19.540Z,176.57
2022-11-22T05:20:46.334Z,176.63
2022-11-22T05:23:32.310Z,170.73
2022-11-22T05:25:59.268Z,174.20
2022-11-22T05:28:30.584Z,170.02
2022-11-22T05:30:57.461Z,175.55
2022-11-22T05:33:24.162Z,179.43
2022-11-22T05:35:50.846Z,178.05
2022-11-22T05:38:17.647Z,181.25
2022-11-22T05:40:44.293Z,174.13
2022-11-22T05:43:10.847Z,170.13
2022-11-22T05:45:37.458Z,176.13
2022-11-22T05:48:04.219Z,177.50
2022-11-22T05:50:30.821Z,173.57
2022-11-22T05:53:01.993Z,168.70
2022-11-22T05:55:29.547Z,181.73
2022-11-22T05:57:59.774Z,167.32
2022-11-22T06:00:26.889Z,175.10
2022-11-22T06:02:53.546Z,168.73
2022-11-22T06:05:20.124Z,176.38
2022-11-22T06:07:46.890Z,166.00
2022-11-22T06:10:13.706Z,179.55
2022-11-22T06:12:40.355Z,167.75
2022-11-22T06:15:07.609Z,160.98
2022-11-22T06:17:34.200Z,168.63
2022-11-22T06:20:05.760Z,162.15
2022-11-22T06:22:33.163Z,163.10
2022-11-22T06:24:59.882Z,169.43
2022-11-22T06:27:26.572Z,169.73
2022-11-22T06:29:53.177Z,162.18
2022-11-22T06:32:19.824Z,169.80
2022-11-22T06:34:46.430Z,162.38
2022-11-22T06:37:16.182Z,163.07
2022-11-22T06:39:42.808Z,169.60
2022-11-22T06:42:09.398Z,169.38
2022-11-22T06:44:36.011Z,178.63
2022-11-22T06:47:02.608Z,177.82
2022-11-22T06:49:29.430Z,174.32
2022-11-22T06:51:56.346Z,165.13
2022-11-22T06:54:22.971Z,174.50
2022-11-22T06:56:49.585Z,174.48
2022-11-22T06:59:16.414Z,165.70
2022-11-22T07:01:43.164Z,176.98
2022-11-22T07:04:10.440Z,160.35
2022-11-22T07:06:38.854Z,171.88
2022-11-22T07:09:09.414Z,175.27
2022-11-22T07:11:36.954Z,161.40
2022-11-22T07:14:08.198Z,172.10
2022-11-22T07:16:36.123Z,167.95
2022-11-22T07:19:03.479Z,174.82
2022-11-22T07:21:30.069Z,180.63
2022-11-22T07:23:56.739Z,167.95
2022-11-22T07:26:24.997Z,174.32
2022-11-22T07:28:51.934Z,183.43
2022-11-22T07:31:19.216Z,165.68
2022-11-22T07:33:46.027Z,179.80
2022-11-22T07:36:16.073Z,178.95
2022-11-22T07:38:42.972Z,176.23
2022-11-22T07:41:10.021Z,177.63
2022-11-22T07:43:37.138Z,177.65
2022-11-22T07:46:07.631Z,172.32
2022-11-22T07:48:34.559Z,170.98
2022-11-22T07:51:05.916Z,185.77
2022-11-22T07:53:33.031Z,169.75
2022-11-22T07:56:04.460Z,171.43
2022-11-22T07:58:32.019Z,182.45
2022-11-22T08:00:58.839Z,184.93
2022-11-22T08:03:28.848Z,172.77
2022-11-22T08:06:00.756Z,171.48
2022-11-22T08:08:27.738Z,168.10
2022-11-22T08:10:54.414Z,176.43
2022-11-22T08:13:21.646Z,173.95
2022-11-22T08:15:49.617Z,183.65
2022-11-22T08:18:16.493Z,181.95
2022-11-22T08:20:43.243Z,184.93
2022-11-22T08:23:10.119Z,173.82
2022-11-22T08:25:36.822Z,182.02
2022-11-22T08:28:03.662Z,185.73
2022-11-22T08:30:30.543Z,189.02
2022-11-22T08:32:57.219Z,182.48
2022-11-22T08:35:23.876Z,176.80
2022-11-22T08:37:50.500Z,176.63
2022-11-22T08:40:17.135Z,204.57
2022-11-22T08:42:43.729Z,213.30
2022-11-22T08:45:10.635Z,195.77
2022-11-22T08:47:37.214Z,193.80
2022-11-22T08:50:04.083Z,194.70
2022-11-22T08:52:30.667Z,198.68
2022-11-22T08:54:57.262Z,185.57
2022-11-22T08:57:23.888Z,180.38
2022-11-22T08:59:50.503Z,186.18
2022-11-22T09:02:17.118Z,174.10
2022-11-22T09:04:44.185Z,175.15
2022-11-22T09:09:57.559Z,183.05
2022-11-22T09:12:24.292Z,185.25
2022-11-22T09:14:50.940Z,184.98
2022-11-22T09:17:18.359Z,177.80
2022-11-22T09:19:45.121Z,188.05
2022-11-22T09:22:11.715Z,174.65
2022-11-22T09:24:38.343Z,193.43
2022-11-22T09:27:04.937Z,188.65
2022-11-22T09:29:31.898Z,183.93
2022-11-22T09:31:58.797Z,181.20
2022-11-22T09:34:25.395Z,171.88
2022-11-22T09:36:52.127Z,178.30
2022-11-22T09:39:18.811Z,180.00
2022-11-22T09:42:25.748Z,183.38
2022-11-22T09:45:31.429Z,181.13
2022-11-22T09:48:09.962Z,175.93
2022-11-22T09:50:52.490Z,180.02
2022-11-22T09:53:30.015Z,187.32
2022-11-22T09:56:00.644Z,185.52
2022-11-22T09:58:47.655Z,178.95
2022-11-22T10:01:23.113Z,187.02
2022-11-22T10:04:00.963Z,181.68
2022-11-22T10:06:32.494Z,183.05
2022-11-22T10:09:14.379Z,182.05
2022-11-22T10:12:10.010Z,179.93
2022-11-22T10:14:54.771Z,175.55
2022-11-22T10:17:48.730Z,176.13
2022-11-22T10:20:17.348Z,174.88
2022-11-22T10:22:44.358Z,181.40
2022-11-22T10:25:17.359Z,184.40
2022-11-22T10:27:48.063Z,181.75
2022-11-22T10:30:18.032Z,176.35
2022-11-22T10:33:07.822Z,176.80
2022-11-22T10:35:59.467Z,175.43
2022-11-22T10:38:52.801Z,190.45
2022-11-22T10:41:45.831Z,177.45
2022-11-22T10:44:18.535Z,177.85
2022-11-22T10:47:05.521Z,194.98
2022-11-22T10:49:57.660Z,176.00
2022-11-22T10:52:44.535Z,188.70
2022-11-22T10:55:23.244Z,180.95
2022-11-22T10:58:02.398Z,173.00
2022-11-22T11:00:32.398Z,176.40
2022-11-22T11:03:12.163Z,177.48
2022-11-22T11:09:36.639Z,179.45
2022-11-22T11:11:45.745Z,184.63
2022-11-22T11:14:26.394Z,184.45
2022-11-22T11:16:54.030Z,172.85
2022-11-22T11:19:23.794Z,174.82
2022-11-22T11:21:57.349Z,182.18
2022-11-22T11:24:23.943Z,171.05
2022-11-22T11:26:55.244Z,179.57
2022-11-22T11:29:24.798Z,173.27
2022-11-22T11:32:09.808Z,192.30
2022-11-22T11:34:38.897Z,179.95
2022-11-22T11:37:06.580Z,178.48
2022-11-22T11:39:35.043Z,178.88
2022-11-22T11:42:21.897Z,184.18
2022-11-22T11:44:48.640Z,186.75
2022-11-22T11:47:30.951Z,183.98
2022-11-22T11:49:57.841Z,193.18
2022-11-22T11:52:25.794Z,185.43
2022-11-22T11:54:56.396Z,190.55
2022-11-22T11:57:30.396Z,185.43
2022-11-22T12:00:00.925Z,192.77
2022-11-22T12:02:40.226Z,189.07
2022-11-22T12:05:12.947Z,205.43
2022-11-22T12:07:45.104Z,199.27
2022-11-22T12:10:55.947Z,191.98
2022-11-22T12:13:31.683Z,178.35
2022-11-22T12:16:07.487Z,181.65
2022-11-22T12:18:57.565Z,187.18
2022-11-22T12:21:47.115Z,177.45
2022-11-22T12:27:20.083Z,186.27
2022-11-22T12:29:46.828Z,178.82
2022-11-22T12:32:19.604Z,176.68
2022-11-22T12:34:55.036Z,178.98
2022-11-22T12:37:27.656Z,182.70
2022-11-22T12:39:58.975Z,175.00
2022-11-22T12:42:44.055Z,182.90
2022-11-22T12:45:22.835Z,176.63
2022-11-22T12:47:52.259Z,185.00
2022-11-22T12:50:41.544Z,187.25
2022-11-22T12:53:26.919Z,176.57
2022-11-22T12:56:16.645Z,186.23
2022-11-22T12:58:58.259Z,188.52
2022-11-22T13:01:26.903Z,186.70
2022-11-22T13:04:11.925Z,175.82
2022-11-22T13:07:15.448Z,176.57
2022-11-22T13:09:50.810Z,183.90
2022-11-22T13:12:26.921Z,169.13
2022-11-22T13:14:55.626Z,170.13
2022-11-22T13:17:24.787Z,174.48
2022-11-22T13:20:00.382Z,191.27
2022-11-22T13:22:55.220Z,173.52
2022-11-22T13:25:39.985Z,170.65
2022-11-22T13:28:13.844Z,169.98
2022-11-22T13:30:40.746Z,171.15
2022-11-22T13:33:24.784Z,170.02
2022-11-22T13:35:51.393Z,169.02
2022-11-22T13:38:18.494Z,171.23
2022-11-22T13:40:47.135Z,168.73
2022-11-22T13:43:17.965Z,167.85
2022-11-22T13:45:55.539Z,169.05
2022-11-22T13:48:40.690Z,164.50
2022-11-22T13:51:12.107Z,169.00
2022-11-22T13:53:42.721Z,176.40
2022-11-22T13:56:15.469Z,169.25
2022-11-22T13:58:51.154Z,167.43
2022-11-22T14:01:36.473Z,179.65
2022-11-22T14:04:34.457Z,171.85
2022-11-22T14:07:10.465Z,181.52
2022-11-22T14:09:52.611Z,181.60
2022-11-22T14:12:55.419Z,172.07
2022-11-22T14:15:51.250Z,164.82
2022-11-22T14:18:51.734Z,182.00
2022-11-22T14:21:44.406Z,176.70
2022-11-22T14:24:23.810Z,192.25
2022-11-22T14:27:41.609Z,177.02
2022-11-22T14:30:15.893Z,188.98
2022-11-22T14:32:49.260Z,173.57
2022-11-22T14:35:24.896Z,168.93
2022-11-22T14:38:10.138Z,170.73
2022-11-22T14:40:40.479Z,178.30
2022-11-22T14:43:28.612Z,169.52
2022-11-22T14:46:45.405Z,174.45
2022-11-22T14:49:21.527Z,168.27
2022-11-22T14:51:53.165Z,179.68
2022-11-22T14:54:38.998Z,178.07
2022-11-22T14:57:07.933Z,176.90
2022-11-22T14:59:53.466Z,176.55
2022-11-22T15:02:38.480Z,164.82
2022-11-22T15:09:17.682Z,164.93
2022-11-22T15:09:20.998Z,167.65
2022-11-22T15:11:55.797Z,180.07
2022-11-22T15:59:59.947Z,157.00
2022-11-22T16:02:30.043Z,164.52
2022-11-22T16:06:09.192Z,162.07
2022-11-22T16:07:49.859Z,165.75
2022-11-22T16:10:28.321Z,167.90
2022-11-22T16:12:54.984Z,156.40
2022-11-22T16:15:26.577Z,174.18
2022-11-22T16:18:01.096Z,172.32
2022-11-22T16:20:33.740Z,172.63
2022-11-22T16:23:09.531Z,159.02
2022-11-22T16:25:39.863Z,168.25
2022-11-22T16:28:30.935Z,172.88
2022-11-22T16:31:22.191Z,159.55
2022-11-22T16:33:49.835Z,164.15
2022-11-22T16:36:18.240Z,171.85
2022-11-22T16:38:45.369Z,167.07
2022-11-22T16:41:24.024Z,158.82
2022-11-22T16:43:54.773Z,165.70
2022-11-22T16:46:21.590Z,164.10
2022-11-22T16:48:48.439Z,163.05
2022-11-22T16:51:19.442Z,174.38
2022-11-22T16:53:48.106Z,179.93
2022-11-22T16:56:23.496Z,170.13
2022-11-22T16:58:51.627Z,165.47
2022-11-22T17:01:21.539Z,166.82
2022-11-22T17:03:50.494Z,177.93
2022-11-22T17:06:22.597Z,167.27
2022-11-22T17:08:50.883Z,163.75
2022-11-22T17:11:20.077Z,178.95
2022-11-22T17:13:47.253Z,173.90
2022-11-22T17:16:14.606Z,167.32
2022-11-22T17:18:41.368Z,174.57
2022-11-22T17:21:16.125Z,170.77
2022-11-22T17:23:43.411Z,173.77
2022-11-22T17:26:10.747Z,162.18
2022-11-22T17:28:37.359Z,166.25
2022-11-22T17:31:12.298Z,168.68
2022-11-22T17:33:38.973Z,161.23
2022-11-22T17:36:16.503Z,169.52
2022-11-22T17:38:43.128Z,172.13
2022-11-22T17:41:09.850Z,159.30
2022-11-22T17:43:39.708Z,168.35
2022-11-22T17:46:06.390Z,167.60
2022-11-22T17:48:33.043Z,159.85
2022-11-22T17:51:04.469Z,163.40
2022-11-22T17:53:31.156Z,166.23
2022-11-22T17:56:13.193Z,172.43
2022-11-22T17:58:41.092Z,156.95
2022-11-22T18:01:10.890Z,163.40
2022-11-22T18:03:38.062Z,169.50
2022-11-22T18:06:04.951Z,161.23
2022-11-22T18:08:32.783Z,161.55
2022-11-22T18:11:00.524Z,173.65
2022-11-22T18:13:34.042Z,168.35
2022-11-22T18:16:04.005Z,167.93
2022-11-22T18:21:19.194Z,164.50
2022-11-22T18:23:45.952Z,170.30
2022-11-22T18:31:54.278Z,162.77
2022-11-22T18:34:24.587Z,169.40
2022-11-22T18:37:07.229Z,171.40
2022-11-22T18:39:36.763Z,167.57
2022-11-22T18:42:06.121Z,159.13
2022-11-22T18:44:32.845Z,158.82
2022-11-22T18:46:59.781Z,161.27
2022-11-22T18:49:26.609Z,176.60
2022-11-22T18:51:53.290Z,164.98
2022-11-22T18:54:21.779Z,159.18
2022-11-22T18:56:49.077Z,162.05
2022-11-22T18:59:15.710Z,169.75
2022-11-22T19:01:42.354Z,163.82
2022-11-22T19:04:15.942Z,170.90
2022-11-22T19:06:43.466Z,165.65
2022-11-22T19:09:10.764Z,165.13
2022-11-22T19:11:37.639Z,163.48
2022-11-22T19:14:04.627Z,160.02
2022-11-22T19:16:31.627Z,167.15
2022-11-22T19:18:59.169Z,166.80
2022-11-22T19:21:27.900Z,159.07
2022-11-22T19:23:55.661Z,177.43
2022-11-22T19:26:25.469Z,168.20
2022-11-22T19:28:56.635Z,160.10
2022-11-22T19:31:28.959Z,159.65
2022-11-22T19:33:56.037Z,160.30
2022-11-22T19:36:30.787Z,157.25
2022-11-22T19:38:58.713Z,159.27
2022-11-22T19:41:26.084Z,165.45
2022-11-22T19:43:52.893Z,159.85
2022-11-22T19:46:20.072Z,168.52
2022-11-22T19:48:54.084Z,165.25
2022-11-22T19:51:21.262Z,173.07
2022-11-22T19:53:48.148Z,169.25
2022-11-22T19:56:19.307Z,174.88
2022-11-22T19:58:56.173Z,173.85
2022-11-22T20:01:26.269Z,173.52
2022-11-22T20:03:54.737Z,169.45
2022-11-22T20:06:21.458Z,166.02
2022-11-22T20:08:48.174Z,172.70
2022-11-22T20:11:17.609Z,157.52
2022-11-22T20:13:49.979Z,163.38
2022-11-22T20:16:17.865Z,168.38
2022-11-22T20:18:44.545Z,164.38
2022-11-22T20:21:11.669Z,164.02
2022-11-22T20:23:38.874Z,162.35
2022-11-22T20:26:11.402Z,163.90
2022-11-22T20:28:39.464Z,161.50
2022-11-22T20:31:12.736Z,164.63
2022-11-22T20:33:42.355Z,168.43
2022-11-22T20:36:14.873Z,167.95
2022-11-22T20:38:43.968Z,167.15
2022-11-22T20:41:15.595Z,163.10
2022-11-22T20:43:42.480Z,171.48
2022-11-22T20:46:32.126Z,163.60
2022-11-22T20:48:58.716Z,164.70
2022-11-22T20:51:27.308Z,154.18
2022-11-22T20:53:54.548Z,159.50
2022-11-22T20:56:21.521Z,167.25
2022-11-22T20:58:48.583Z,164.13
2022-11-22T21:01:20.762Z,164.80
2022-11-22T21:03:47.978Z,164.93
2022-11-22T21:06:16.479Z,168.32
2022-11-22T21:08:45.820Z,168.88
2022-11-22T21:11:17.798Z,170.43
2022-11-22T21:13:45.227Z,164.55
2022-11-22T21:16:23.686Z,170.15
2022-11-22T21:19:02.241Z,169.32
2022-11-22T21:21:30.619Z,162.20
2022-11-22T21:24:00.084Z,159.77
2022-11-22T21:26:27.279Z,171.90
2022-11-22T21:28:54.445Z,159.25
2022-11-22T21:31:22.130Z,167.68
2022-11-22T21:33:49.281Z,159.52
2022-11-22T21:36:15.980Z,159.15
2022-11-22T21:38:42.752Z,158.25
2022-11-22T21:44:01.808Z,167.52
2022-11-22T21:46:28.427Z,168.45
2022-11-22T21:48:55.982Z,154.73
2022-11-22T21:51:25.714Z,153.82
2022-11-22T21:53:56.490Z,158.43
2022-11-22T21:56:23.077Z,166.65
2022-11-22T21:58:49.699Z,165.40
2022-11-22T22:01:16.375Z,161.38
2022-11-22T22:03:43.027Z,157.98
2022-11-22T22:06:09.679Z,162.20
2022-11-22T22:08:36.469Z,159.38
2022-11-22T22:11:05.329Z,153.55
2022-11-22T22:13:32.614Z,160.82
2022-11-22T22:16:01.132Z,155.85
2022-11-22T22:18:32.891Z,161.32
2022-11-22T22:21:08.311Z,163.75
2022-11-22T22:23:36.697Z,157.07
2022-11-22T22:26:05.802Z,159.15
2022-11-22T22:28:35.069Z,169.00
2022-11-22T22:31:02.627Z,166.63
2022-11-22T22:33:29.252Z,162.15
2022-11-22T22:35:57.168Z,157.65
2022-11-22T22:38:23.843Z,164.02
2022-11-22T22:40:55.370Z,168.73
2022-11-22T22:43:23.386Z,165.13
2022-11-22T22:45:50.916Z,155.00
2022-11-22T22:48:18.913Z,163.95
2022-11-22T22:50:45.871Z,160.38
2022-11-22T22:53:12.784Z,172.00
2022-11-22T22:55:39.462Z,159.30
2022-11-22T22:58:10.403Z,161.57
2022-11-22T23:00:38.653Z,158.57
2022-11-22T23:03:05.357Z,158.18
2022-11-22T23:05:32.115Z,157.70
2022-11-22T23:07:58.747Z,158.88
2022-11-22T23:10:25.368Z,159.65
2022-11-22T23:12:52.098Z,163.50
2022-11-22T23:15:33.009Z,169.82
2022-11-22T23:18:05.533Z,168.68
2022-11-22T23:20:32.173Z,162.10
2022-11-22T23:22:58.766Z,158.80
2022-11-22T23:25:25.403Z,157.48
2022-11-22T23:27:52.094Z,165.98
2022-11-22T23:30:18.835Z,160.13
2022-11-22T23:32:45.405Z,160.45
2022-11-22T23:35:11.990Z,158.32
2022-11-22T23:37:38.616Z,160.23
2022-11-22T23:40:05.873Z,160.65
2022-11-22T23:42:32.489Z,157.88
2022-11-22T23:44:59.166Z,164.15
2022-11-22T23:47:25.792Z,157.55
2022-11-22T23:49:52.431Z,158.93
2022-11-22T23:52:19.089Z,158.82
2022-11-22T23:54:45.734Z,160.20
2022-11-22T23:57:12.373Z,154.02
2022-11-22T23:59:38.986Z,154.77
